Time;durP1;ratioP1;P1;durP2;ratioP2;P2;SDS_P1;SDS_P2;PMS_P1;PMS_P2;Temp;Humidity;BMP_temperature;BMP_pressure;BME280_temperature;BME280_humidity;BME280_pressure;Samples;Min_cycle;Max_cycle;Signal;HPM_P1;HPM_P2
2022/12/27 00:02:24;;;;;;;;;;;2.70;99.90;;;;;;4957511;28;19991;-56
2022/12/27 00:04:50;;;;;;;;;;;2.70;99.90;;;;;;4961535;28;19984;-54
2022/12/27 00:07:16;;;;;;;;;;;2.80;99.90;;;;;;4976306;28;19929;-55
2022/12/27 00:09:41;;;;;;;;;;;2.80;99.90;;;;;;4976346;28;19922;-53
2022/12/27 00:12:07;;;;;;;;;;;2.80;99.90;;;;;;4976610;28;19977;-57
2022/12/27 00:14:33;;;;;;;;;;;2.80;99.90;;;;;;4963833;28;19962;-56
2022/12/27 00:16:58;;;;;;;;;;;2.80;99.90;;;;;;4966623;28;19922;-55
2022/12/27 00:19:24;;;;;;;;;;;2.80;99.90;;;;;;4967257;28;19976;-54
2022/12/27 00:21:49;;;;;;;;;;;2.80;99.90;;;;;;4964401;28;19934;-52
2022/12/27 00:24:15;;;;;;;;;;;2.70;99.90;;;;;;4951671;28;19945;-52
2022/12/27 00:26:40;;;;;;;;;;;2.70;99.90;;;;;;4932830;28;19926;-53
2022/12/27 00:29:06;;;;;;;;;;;2.70;99.90;;;;;;4962357;28;19969;-55
2022/12/27 00:31:32;;;;;;;;;;;2.70;99.90;;;;;;4966282;28;20117;-55
2022/12/27 00:33:58;;;;;;;;;;;2.60;99.90;;;;;;4958392;28;19981;-53
2022/12/27 00:36:25;;;;;;;;;;;2.60;99.90;;;;;;4958884;28;19922;-52
2022/12/27 00:38:51;;;;;;;;;;;2.60;99.90;;;;;;4957851;28;19929;-56
2022/12/27 00:41:17;;;;;;;;;;;2.50;99.90;;;;;;4963660;28;20012;-56
2022/12/27 00:43:42;;;;;;;;;;;2.60;99.90;;;;;;4964937;28;20021;-56
2022/12/27 00:46:08;;;;;;;;;;;2.50;99.90;;;;;;4959990;28;19933;-52
2022/12/27 00:48:34;;;;;;;;;;;2.50;99.90;;;;;;4963579;28;19990;-52
2022/12/27 00:51:00;;;;;;;;;;;2.50;99.90;;;;;;4966303;28;19985;-52
2022/12/27 00:53:26;;;;;;;;;;;2.50;99.90;;;;;;4966978;28;20020;-52
2022/12/27 00:55:52;;;;;;;;;;;2.50;99.90;;;;;;4965700;28;20009;-54
2022/12/27 00:58:17;;;;;;;;;;;2.50;99.90;;;;;;4966115;28;19984;-51
2022/12/27 01:00:43;;;;;;;;;;;2.50;99.90;;;;;;4967045;28;19999;-50
2022/12/27 01:03:08;;;;;;;;;;;2.50;99.90;;;;;;4964655;28;19922;-55
2022/12/27 01:05:36;;;;;;;;;;;2.40;99.90;;;;;;4960134;28;19922;-52
2022/12/27 01:08:03;;;;;;;;;;;2.40;99.90;;;;;;4957629;28;19961;-55
2022/12/27 01:10:29;;;;;;;;;;;2.50;99.90;;;;;;4958460;28;19926;-55
2022/12/27 01:12:55;;;;;;;;;;;2.50;99.90;;;;;;4959676;28;19922;-54
2022/12/27 01:15:20;;;;;;;;;;;2.50;99.90;;;;;;4962990;28;19929;-53
2022/12/27 01:17:46;;;;;;;;;;;2.50;99.90;;;;;;4961170;28;19930;-52
2022/12/27 01:20:11;;;;;;;;;;;2.40;99.90;;;;;;4942788;28;19928;-55
2022/12/27 01:22:37;;;;;;;;;;;2.50;99.90;;;;;;4958873;28;19973;-55
2022/12/27 01:25:03;;;;;;;;;;;2.40;99.90;;;;;;4968218;28;19961;-56
2022/12/27 01:27:28;;;;;;;;;;;2.40;99.90;;;;;;4963999;28;19933;-55
2022/12/27 01:29:54;;;;;;;;;;;;;;;;;;4959020;28;19980;-55
2022/12/27 01:32:20;;;;;;;;;;;2.30;99.90;;;;;;4958444;28;20376;-52
2022/12/27 01:34:45;;;;;;;;;;;2.40;99.90;;;;;;4964153;28;19925;-52
2022/12/27 01:37:11;;;;;;;;;;;2.40;99.90;;;;;;4962142;28;21863;-51
2022/12/27 01:39:36;;;;;;;;;;;2.40;99.90;;;;;;4943216;28;19932;-51
2022/12/27 01:44:50;;;;;;;;;;;2.30;99.90;;;;;;4966623;28;19922;-52
2022/12/27 01:47:15;;;;;;;;;;;2.30;99.90;;;;;;4960042;28;19926;-54
2022/12/27 01:49:45;;;;;;;;;;;2.40;99.90;;;;;;4963511;28;19976;-51
2022/12/27 01:52:11;;;;;;;;;;;2.40;99.90;;;;;;4966442;28;20179;-51
2022/12/27 01:54:36;;;;;;;;;;;2.40;99.90;;;;;;4967558;28;19929;-51
2022/12/27 01:57:02;;;;;;;;;;;2.40;99.90;;;;;;4969982;28;20073;-56
2022/12/27 01:59:28;;;;;;;;;;;2.40;99.90;;;;;;4965265;28;19926;-56
2022/12/27 02:01:54;;;;;;;;;;;2.40;99.90;;;;;;4965780;28;20246;-55
2022/12/27 02:04:21;;;;;;;;;;;2.40;99.90;;;;;;4964689;28;20030;-55
2022/12/27 02:06:47;;;;;;;;;;;2.40;99.90;;;;;;4964834;28;19918;-52
2022/12/27 02:09:31;;;;;;;;;;;2.40;99.90;;;;;;4964508;28;20439;-52
2022/12/27 02:11:57;;;;;;;;;;;2.40;99.90;;;;;;4965795;28;19927;-55
2022/12/27 02:14:22;;;;;;;;;;;2.50;99.90;;;;;;4965098;28;19930;-54
2022/12/27 02:16:48;;;;;;;;;;;2.60;99.90;;;;;;4964150;28;19929;-52
2022/12/27 02:19:28;;;;;;;;;;;2.60;99.90;;;;;;4933323;28;21829;-53
2022/12/27 02:22:12;;;;;;;;;;;2.70;99.90;;;;;;4966457;28;19934;-56
2022/12/27 02:24:51;;;;;;;;;;;2.80;99.90;;;;;;4962257;28;20400;-56
2022/12/27 02:27:19;;;;;;;;;;;2.80;99.90;;;;;;4963713;28;19929;-56
2022/12/27 02:29:52;;;;;;;;;;;2.80;99.90;;;;;;4961345;28;20399;-52
2022/12/27 02:32:27;;;;;;;;;;;2.80;99.90;;;;;;4966572;28;19967;-56
2022/12/27 02:35:04;;;;;;;;;;;2.80;99.90;;;;;;4950672;28;20328;-55
2022/12/27 02:37:31;;;;;;;;;;;2.80;99.90;;;;;;4963821;28;19926;-53
2022/12/27 02:53:02;;;;;;;;;;;2.80;99.90;;;;;;4968945;28;19945;-53
2022/12/27 02:54:01;;;;;;;;;;;2.80;99.90;;;;;;4969151;28;19922;-54
2022/12/27 02:59:23;;;;;;;;;;;2.90;99.90;;;;;;4968778;28;19930;-56
2022/12/27 03:04:56;;;;;;;;;;;2.80;99.90;;;;;;4968907;28;19926;-56
2022/12/27 03:07:24;;;;;;;;;;;2.90;99.90;;;;;;4966484;28;19931;-54
2022/12/27 03:15:56;;;;;;;;;;;3.00;99.90;;;;;;4968349;28;20016;-55
2022/12/27 03:18:34;;;;;;;;;;;3.00;99.90;;;;;;4937136;28;19930;-55
2022/12/27 03:26:31;;;;;;;;;;;2.90;99.90;;;;;;4960991;28;19926;-55
2022/12/27 03:34:34;;;;;;;;;;;2.90;99.90;;;;;;4961965;28;19930;-57
2022/12/27 03:40:07;;;;;;;;;;;2.90;99.90;;;;;;4963850;28;19922;-55
2022/12/27 03:45:20;;;;;;;;;;;3.00;99.90;;;;;;4963304;28;19965;-55
2022/12/27 03:48:00;;;;;;;;;;;3.00;99.90;;;;;;4961251;28;19957;-53
2022/12/27 03:50:25;;;;;;;;;;;3.10;99.90;;;;;;4965136;28;20176;-54
2022/12/27 03:53:00;;;;;;;;;;;3.10;99.90;;;;;;4962753;28;20378;-51
2022/12/27 03:55:26;;;;;;;;;;;3.10;99.90;;;;;;4961195;28;20016;-55
2022/12/27 03:57:51;;;;;;;;;;;3.20;99.90;;;;;;4963862;28;20384;-51
2022/12/27 04:00:17;;;;;;;;;;;3.20;99.90;;;;;;4961565;28;19930;-53
2022/12/27 04:02:42;;;;;;;;;;;3.20;99.90;;;;;;4963622;28;19922;-54
2022/12/27 04:05:08;;;;;;;;;;;3.20;99.90;;;;;;4966764;28;20415;-55
2022/12/27 04:07:34;;;;;;;;;;;3.20;99.90;;;;;;4966038;28;19926;-55
2022/12/27 04:34:42;;;;;;;;;;;3.70;99.90;;;;;;4961651;28;19926;-51
2022/12/27 04:37:17;;;;;;;;;;;3.70;99.90;;;;;;4962970;28;19922;-55
2022/12/27 04:56:07;;;;;;;;;;;3.50;99.90;;;;;;4960408;28;19926;-52
2022/12/27 04:58:33;;;;;;;;;;;3.50;99.90;;;;;;4964864;28;20688;-51
2022/12/27 05:03:45;;;;;;;;;;;3.50;99.90;;;;;;4966325;28;19926;-51
2022/12/27 05:06:11;;;;;;;;;;;3.60;99.90;;;;;;4966439;28;19929;-58
2022/12/27 05:14:07;;;;;;;;;;;3.60;99.90;;;;;;4956721;28;19930;-55
2022/12/27 05:16:34;;;;;;;;;;;3.60;99.90;;;;;;4959651;28;19937;-53
2022/12/27 05:19:00;;;;;;;;;;;3.50;99.90;;;;;;4958607;28;20392;-51
2022/12/27 05:21:26;;;;;;;;;;;3.50;99.90;;;;;;4961005;28;19965;-53
2022/12/27 05:26:37;;;;;;;;;;;3.60;99.90;;;;;;4959245;28;19938;-54
2022/12/27 05:29:03;;;;;;;;;;;3.70;99.90;;;;;;4956852;28;19922;-52
2022/12/27 05:31:29;;;;;;;;;;;3.60;99.90;;;;;;4960550;28;20012;-55
2022/12/27 05:33:55;;;;;;;;;;;3.60;99.90;;;;;;4943690;28;19936;-53
2022/12/27 05:36:20;;;;;;;;;;;3.50;99.90;;;;;;4959534;28;19926;-52
2022/12/27 05:38:46;;;;;;;;;;;3.50;99.90;;;;;;4958359;28;19922;-55
2022/12/27 05:41:12;;;;;;;;;;;3.40;99.90;;;;;;4957813;28;20391;-51
2022/12/27 05:43:37;;;;;;;;;;;3.40;99.90;;;;;;4961465;28;20291;-51
2022/12/27 05:46:07;;;;;;;;;;;3.30;99.90;;;;;;4964998;28;20368;-54
2022/12/27 05:48:33;;;;;;;;;;;3.30;99.90;;;;;;4960536;28;19953;-53
2022/12/27 05:51:02;;;;;;;;;;;3.40;99.90;;;;;;4961138;28;19973;-51
2022/12/27 05:53:28;;;;;;;;;;;3.30;99.90;;;;;;4959544;28;19926;-53
2022/12/27 05:55:54;;;;;;;;;;;3.40;99.90;;;;;;4957431;28;19930;-53
2022/12/27 05:58:20;;;;;;;;;;;3.40;99.90;;;;;;4958214;28;19934;-51
2022/12/27 06:00:45;;;;;;;;;;;3.40;99.90;;;;;;4957606;28;21924;-51
2022/12/27 06:03:11;;;;;;;;;;;3.40;99.90;;;;;;4960508;28;20004;-52
2022/12/27 06:05:36;;;;;;;;;;;3.50;99.90;;;;;;4967228;28;19926;-52
2022/12/27 06:08:02;;;;;;;;;;;3.60;99.90;;;;;;4948164;28;20376;-56
2022/12/27 06:10:27;;;;;;;;;;;3.60;99.90;;;;;;4966014;28;19922;-52
2022/12/27 06:12:53;;;;;;;;;;;3.70;99.90;;;;;;4966040;28;19981;-56
2022/12/27 06:15:18;;;;;;;;;;;3.70;99.90;;;;;;4965305;28;19930;-51
2022/12/27 06:17:44;;;;;;;;;;;3.70;99.90;;;;;;4965763;28;19945;-53
2022/12/27 06:20:10;;;;;;;;;;;3.80;99.90;;;;;;4963787;28;19965;-55
2022/12/27 06:22:35;;;;;;;;;;;3.80;99.90;;;;;;4965593;28;19922;-56
2022/12/27 06:25:01;;;;;;;;;;;3.80;99.90;;;;;;4965001;28;20281;-55
2022/12/27 06:27:26;;;;;;;;;;;3.80;99.90;;;;;;4966497;28;20009;-53
2022/12/27 06:29:52;;;;;;;;;;;3.70;99.90;;;;;;4964813;28;19976;-55
2022/12/27 06:32:17;;;;;;;;;;;3.70;99.90;;;;;;4964172;28;19937;-55
2022/12/27 06:34:43;;;;;;;;;;;3.60;99.90;;;;;;4958916;28;20333;-53
2022/12/27 06:37:09;;;;;;;;;;;3.60;99.90;;;;;;4961087;28;19922;-52
2022/12/27 06:39:34;;;;;;;;;;;3.60;99.90;;;;;;4959090;28;19968;-51
2022/12/27 06:42:00;;;;;;;;;;;3.60;99.90;;;;;;4958152;28;20020;-53
2022/12/27 06:44:25;;;;;;;;;;;3.60;99.90;;;;;;4956992;28;21672;-55
2022/12/27 06:46:51;;;;;;;;;;;3.50;99.90;;;;;;4957450;28;19934;-55
2022/12/27 06:49:16;;;;;;;;;;;3.50;99.90;;;;;;4957721;28;19998;-53
2022/12/27 06:51:42;;;;;;;;;;;3.60;99.90;;;;;;4957845;28;19941;-56
2022/12/27 06:54:07;;;;;;;;;;;3.60;99.90;;;;;;4957970;28;20170;-53
2022/12/27 06:56:33;;;;;;;;;;;3.60;99.90;;;;;;4957864;28;19976;-52
2022/12/27 06:58:58;;;;;;;;;;;3.60;99.90;;;;;;4959192;28;19930;-54
2022/12/27 07:01:25;;;;;;;;;;;3.60;99.90;;;;;;4959030;28;19926;-55
2022/12/27 07:03:55;;;;;;;;;;;3.60;99.90;;;;;;4961532;28;19934;-56
2022/12/27 07:06:21;;;;;;;;;;;3.60;99.90;;;;;;4958981;28;19925;-56
2022/12/27 07:08:48;;;;;;;;;;;3.60;99.90;;;;;;4961119;28;19922;-55
2022/12/27 07:11:14;;;;;;;;;;;3.60;99.90;;;;;;4963055;28;19949;-54
2022/12/27 07:13:42;;;;;;;;;;;3.50;99.90;;;;;;4968781;28;20064;-56
2022/12/27 07:16:09;;;;;;;;;;;3.50;99.90;;;;;;4954379;28;19922;-55
2022/12/27 07:18:35;;;;;;;;;;;3.40;99.90;;;;;;4961345;28;20028;-54
2022/12/27 07:21:05;;;;;;;;;;;3.40;99.90;;;;;;4963617;28;20029;-56
2022/12/27 07:23:31;;;;;;;;;;;3.30;99.90;;;;;;4961504;28;19922;-56
2022/12/27 07:26:00;;;;;;;;;;;3.30;99.90;;;;;;4960210;28;19922;-52
2022/12/27 07:28:26;;;;;;;;;;;3.30;99.90;;;;;;4960177;28;19936;-55
2022/12/27 07:30:51;;;;;;;;;;;3.30;99.90;;;;;;4965712;28;19922;-51
2022/12/27 07:33:17;;;;;;;;;;;3.30;99.90;;;;;;4962315;28;19972;-52
2022/12/27 07:35:43;;;;;;;;;;;3.30;99.90;;;;;;4960788;28;20544;-54
2022/12/27 07:38:08;;;;;;;;;;;3.30;99.90;;;;;;4951645;28;19937;-54
2022/12/27 07:40:35;;;;;;;;;;;3.40;99.90;;;;;;4961643;28;19937;-56
2022/12/27 07:43:00;;;;;;;;;;;3.50;99.90;;;;;;4961805;28;19922;-54
2022/12/27 07:45:26;;;;;;;;;;;3.60;99.90;;;;;;4968353;28;20211;-55
2022/12/27 07:47:52;;;;;;;;;;;3.60;99.90;;;;;;4960099;28;19930;-53
2022/12/27 07:50:17;;;;;;;;;;;3.60;99.90;;;;;;4960447;28;20477;-56
2022/12/27 07:52:43;;;;;;;;;;;3.70;99.90;;;;;;4960251;28;20684;-55
2022/12/27 07:55:08;;;;;;;;;;;3.80;99.90;;;;;;4962695;28;19929;-55
2022/12/27 07:57:34;;;;;;;;;;;3.70;99.90;;;;;;4963471;28;19926;-54
2022/12/27 07:59:59;;;;;;;;;;;3.80;99.90;;;;;;4965690;28;20269;-56
2022/12/27 08:02:25;;;;;;;;;;;;;;;;;;4963722;28;19929;-52
2022/12/27 08:04:51;;;;;;;;;;;3.90;99.90;;;;;;4966428;28;20368;-52
2022/12/27 08:07:18;;;;;;;;;;;3.90;99.90;;;;;;4967013;28;19922;-52
2022/12/27 08:09:45;;;;;;;;;;;4.00;99.90;;;;;;4968048;28;19945;-53
2022/12/27 08:12:12;;;;;;;;;;;4.00;99.90;;;;;;4966067;28;20411;-53
2022/12/27 08:14:38;;;;;;;;;;;4.00;99.90;;;;;;4966644;28;20380;-52
2022/12/27 08:17:11;;;;;;;;;;;4.10;99.90;;;;;;4966249;28;19922;-51
2022/12/27 08:19:37;;;;;;;;;;;4.10;99.90;;;;;;4968107;28;20385;-51
2022/12/27 08:22:04;;;;;;;;;;;4.10;99.90;;;;;;4965315;28;20072;-52
2022/12/27 08:24:30;;;;;;;;;;;4.10;99.90;;;;;;4967619;28;20308;-52
2022/12/27 08:26:55;;;;;;;;;;;4.10;99.90;;;;;;4965732;28;20079;-55
2022/12/27 08:29:21;;;;;;;;;;;4.00;99.90;;;;;;4971724;28;20056;-54
2022/12/27 08:31:46;;;;;;;;;;;3.90;99.90;;;;;;4965444;28;19921;-55
2022/12/27 08:34:12;;;;;;;;;;;3.90;99.90;;;;;;4965985;28;20300;-53
2022/12/27 08:36:37;;;;;;;;;;;3.90;99.90;;;;;;4966295;28;19922;-55
2022/12/27 08:39:03;;;;;;;;;;;3.80;99.90;;;;;;4948474;28;19932;-54
2022/12/27 08:41:28;;;;;;;;;;;3.80;99.90;;;;;;4950681;28;19926;-56
2022/12/27 08:43:54;;;;;;;;;;;3.80;99.90;;;;;;4964776;28;20020;-54
2022/12/27 08:46:19;;;;;;;;;;;3.80;99.90;;;;;;4972672;28;19929;-52
2022/12/27 08:48:48;;;;;;;;;;;3.90;99.90;;;;;;4959359;28;19922;-54
2022/12/27 08:51:14;;;;;;;;;;;4.00;99.90;;;;;;4972510;28;19941;-51
2022/12/27 08:53:40;;;;;;;;;;;4.10;99.90;;;;;;4973791;28;19922;-56
2022/12/27 08:56:05;;;;;;;;;;;4.20;99.90;;;;;;4970557;28;20292;-52
2022/12/27 08:58:31;;;;;;;;;;;4.20;99.90;;;;;;4967167;28;20288;-52
2022/12/27 09:01:02;;;;;;;;;;;4.20;99.90;;;;;;4969179;28;20599;-52
2022/12/27 09:03:28;;;;;;;;;;;4.20;99.90;;;;;;4964649;28;19989;-53
2022/12/27 09:05:53;;;;;;;;;;;4.20;99.90;;;;;;4967888;28;19921;-56
2022/12/27 09:08:19;;;;;;;;;;;4.30;99.90;;;;;;4966666;28;19926;-51
2022/12/27 09:10:44;;;;;;;;;;;4.30;99.90;;;;;;4966752;28;19926;-55
2022/12/27 09:13:10;;;;;;;;;;;4.30;99.90;;;;;;4961497;28;20009;-51
2022/12/27 09:15:36;;;;;;;;;;;4.30;99.90;;;;;;4963672;28;20365;-51
2022/12/27 09:18:02;;;;;;;;;;;4.20;99.90;;;;;;4968844;28;19921;-51
2022/12/27 09:20:27;;;;;;;;;;;4.10;99.90;;;;;;4968852;28;19940;-52
2022/12/27 09:22:53;;;;;;;;;;;4.10;99.90;;;;;;4970986;28;19930;-52
2022/12/27 09:25:18;;;;;;;;;;;4.00;99.90;;;;;;4968281;28;20013;-53
2022/12/27 09:27:44;;;;;;;;;;;4.10;99.90;;;;;;4967107;28;19965;-51
2022/12/27 09:30:09;;;;;;;;;;;4.10;99.90;;;;;;4963698;28;19928;-52
2022/12/27 09:32:35;;;;;;;;;;;4.20;99.90;;;;;;4963402;28;20384;-51
2022/12/27 09:35:01;;;;;;;;;;;4.30;99.90;;;;;;4964477;28;19929;-51
2022/12/27 09:37:26;;;;;;;;;;;4.30;99.90;;;;;;4968917;28;19922;-51
2022/12/27 09:39:52;;;;;;;;;;;4.30;99.90;;;;;;4966223;28;19929;-52
2022/12/27 09:42:27;;;;;;;;;;;4.40;99.90;;;;;;4970462;28;20012;-51
2022/12/27 09:44:58;;;;;;;;;;;4.40;99.90;;;;;;4969133;28;19957;-55
2022/12/27 09:47:29;;;;;;;;;;;4.40;99.90;;;;;;4965821;28;19933;-51
2022/12/27 09:50:01;;;;;;;;;;;4.40;99.90;;;;;;4963666;28;20324;-52
2022/12/27 09:52:31;;;;;;;;;;;4.40;99.90;;;;;;4969951;28;20257;-53
2022/12/27 09:54:56;;;;;;;;;;;4.50;99.90;;;;;;4971671;28;19922;-54
2022/12/27 09:57:25;;;;;;;;;;;4.70;99.90;;;;;;4971179;28;20009;-55
2022/12/27 09:59:54;;;;;;;;;;;4.80;99.90;;;;;;4972640;28;19922;-53
2022/12/27 10:02:20;;;;;;;;;;;;;;;;;;4971552;28;19937;-53
2022/12/27 10:04:46;;;;;;;;;;;;;;;;;;4967941;28;19922;-55
2022/12/27 10:07:22;;;;;;;;;;;5.10;99.90;;;;;;4957148;28;19953;-53
2022/12/27 10:10:03;;;;;;;;;;;5.10;99.90;;;;;;4965756;28;19930;-53
2022/12/27 10:12:37;;;;;;;;;;;5.10;99.90;;;;;;4966222;28;19933;-55
2022/12/27 10:15:06;;;;;;;;;;;5.00;99.90;;;;;;4964706;28;20048;-51
2022/12/27 10:17:40;;;;;;;;;;;5.00;99.90;;;;;;4965192;28;19926;-53
2022/12/27 10:20:22;;;;;;;;;;;5.00;99.90;;;;;;4966375;28;19922;-52
2022/12/27 10:22:50;;;;;;;;;;;4.90;99.90;;;;;;4964554;28;19922;-55
2022/12/27 10:25:18;;;;;;;;;;;5.00;99.90;;;;;;4968798;28;19922;-54
2022/12/27 10:27:44;;;;;;;;;;;5.00;99.90;;;;;;4969679;28;20285;-55
2022/12/27 10:30:13;;;;;;;;;;;5.00;99.90;;;;;;4965175;28;20404;-52
2022/12/27 10:32:39;;;;;;;;;;;5.00;99.90;;;;;;4961674;28;20087;-56
2022/12/27 10:35:05;;;;;;;;;;;5.00;99.90;;;;;;4968936;28;20396;-53
2022/12/27 10:37:30;;;;;;;;;;;5.10;99.90;;;;;;4965978;28;20390;-52
2022/12/27 10:40:10;;;;;;;;;;;5.10;99.90;;;;;;4967439;28;19980;-52
2022/12/27 10:42:37;;;;;;;;;;;5.10;99.90;;;;;;4966991;28;19922;-52
2022/12/27 10:45:21;;;;;;;;;;;5.10;99.90;;;;;;4967150;28;20003;-51
2022/12/27 10:47:47;;;;;;;;;;;5.10;99.90;;;;;;4970202;28;19937;-56
2022/12/27 10:50:13;;;;;;;;;;;5.20;99.90;;;;;;4970972;28;19922;-55
2022/12/27 10:52:38;;;;;;;;;;;5.20;99.90;;;;;;4971856;28;20020;-53
2022/12/27 10:55:04;;;;;;;;;;;5.30;99.90;;;;;;4968998;28;19922;-53
2022/12/27 10:57:35;;;;;;;;;;;5.30;99.90;;;;;;4977359;28;19932;-55
2022/12/27 11:00:15;;;;;;;;;;;5.30;99.90;;;;;;4962815;28;19930;-56
2022/12/27 11:02:53;;;;;;;;;;;5.30;99.90;;;;;;4973708;28;19922;-55
2022/12/27 11:05:20;;;;;;;;;;;5.30;99.90;;;;;;4954965;28;19961;-52
2022/12/27 11:07:45;;;;;;;;;;;5.40;99.90;;;;;;4978753;28;19964;-55
2022/12/27 11:10:14;;;;;;;;;;;5.40;99.90;;;;;;4976242;28;19930;-56
2022/12/27 11:12:53;;;;;;;;;;;5.50;99.90;;;;;;4980704;28;19922;-55
2022/12/27 11:15:19;;;;;;;;;;;5.50;99.90;;;;;;4977546;28;19922;-56
2022/12/27 11:17:46;;;;;;;;;;;5.60;99.90;;;;;;4975474;28;20296;-56
2022/12/27 11:20:18;;;;;;;;;;;5.80;99.90;;;;;;4971102;28;19922;-55
2022/12/27 11:22:45;;;;;;;;;;;5.80;99.90;;;;;;4977801;28;19965;-56
2022/12/27 11:25:12;;;;;;;;;;;5.90;99.90;;;;;;4972704;28;19929;-56
2022/12/27 11:27:38;;;;;;;;;;;6.00;99.90;;;;;;4962267;28;20292;-56
2022/12/27 11:30:03;;;;;;;;;;;6.00;99.90;;;;;;4975299;28;19941;-54
2022/12/27 11:32:30;;;;;;;;;;;6.10;99.90;;;;;;4973346;28;19925;-55
2022/12/27 11:34:55;;;;;;;;;;;6.20;99.90;;;;;;4975409;28;19922;-56
2022/12/27 11:37:23;;;;;;;;;;;6.30;99.90;;;;;;4973022;28;19929;-54
2022/12/27 11:39:53;;;;;;;;;;;6.30;99.90;;;;;;4973717;28;19933;-56
2022/12/27 11:42:32;;;;;;;;;;;6.30;99.90;;;;;;4973061;28;19929;-56
2022/12/27 11:45:08;;;;;;;;;;;6.30;99.90;;;;;;4973788;28;19968;-52
2022/12/27 11:47:36;;;;;;;;;;;6.20;99.90;;;;;;4964560;28;19922;-52
2022/12/27 11:50:20;;;;;;;;;;;6.20;99.90;;;;;;4961151;28;19928;-53
2022/12/27 11:52:49;;;;;;;;;;;6.20;99.90;;;;;;4971469;28;20016;-52
2022/12/27 11:55:32;;;;;;;;;;;6.20;99.90;;;;;;4966296;28;19923;-52
2022/12/27 11:58:15;;;;;;;;;;;6.20;99.90;;;;;;4970066;28;20431;-56
2022/12/27 12:00:48;;;;;;;;;;;6.10;99.90;;;;;;4972872;28;20575;-56
2022/12/27 12:03:16;;;;;;;;;;;6.10;99.90;;;;;;4972546;28;19929;-55
2022/12/27 12:06:00;;;;;;;;;;;6.10;99.90;;;;;;4962787;28;20288;-54
2022/12/27 12:08:49;;;;;;;;;;;6.10;99.90;;;;;;4974152;28;19950;-52
2022/12/27 12:11:14;;;;;;;;;;;6.00;99.90;;;;;;4934415;29;19923;-52
2022/12/27 12:14:04;;;;;;;;;;;6.00;99.90;;;;;;4935113;29;20262;-52
2022/12/27 12:16:50;;;;;;;;;;;6.00;99.90;;;;;;4930308;29;20025;-55
2022/12/27 12:19:34;;;;;;;;;;;6.10;99.90;;;;;;4934672;29;19926;-52
2022/12/27 12:22:23;;;;;;;;;;;6.10;99.90;;;;;;4932939;29;20266;-54
2022/12/27 12:25:01;;;;;;;;;;;6.10;99.90;;;;;;4915667;29;19923;-56
2022/12/27 12:27:49;;;;;;;;;;;6.10;99.90;;;;;;4931764;29;20428;-55
2022/12/27 12:30:20;;;;;;;;;;;6.10;99.90;;;;;;4931881;29;20441;-55
2022/12/27 12:33:09;;;;;;;;;;;6.10;99.90;;;;;;4928474;29;20033;-54
2022/12/27 12:35:47;;;;;;;;;;;6.10;99.90;;;;;;4932334;29;20468;-51
2022/12/27 12:38:15;;;;;;;;;;;6.00;99.90;;;;;;4934844;29;19973;-53
2022/12/27 12:40:59;;;;;;;;;;;6.00;99.90;;;;;;4917717;29;19923;-51
2022/12/27 12:43:24;;;;;;;;;;;6.00;99.90;;;;;;4929271;29;19998;-50
2022/12/27 12:46:09;;;;;;;;;;;5.90;99.90;;;;;;4934978;29;20348;-52
2022/12/27 12:48:53;;;;;;;;;;;5.90;99.90;;;;;;4960158;28;19929;-51
2022/12/27 12:51:21;;;;;;;;;;;5.90;99.90;;;;;;4974535;28;20381;-51
2022/12/27 12:53:52;;;;;;;;;;;5.90;99.90;;;;;;4974434;28;19922;-52
2022/12/27 12:56:42;;;;;;;;;;;5.90;99.90;;;;;;4976292;28;19937;-51
2022/12/27 12:59:26;;;;;;;;;;;5.90;99.90;;;;;;4958426;28;19969;-52
2022/12/27 13:01:54;;;;;;;;;;;5.90;99.90;;;;;;4972951;28;20253;-51
2022/12/27 13:04:30;;;;;;;;;;;6.00;99.90;;;;;;4974700;28;19976;-51
2022/12/27 13:06:59;;;;;;;;;;;6.10;99.90;;;;;;4973081;28;19926;-51
2022/12/27 13:09:27;;;;;;;;;;;6.10;99.90;;;;;;4974288;28;20394;-51
2022/12/27 13:12:04;;;;;;;;;;;6.20;99.90;;;;;;4975119;28;19977;-51
2022/12/27 13:14:45;;;;;;;;;;;6.30;99.90;;;;;;4975174;28;20061;-51
2022/12/27 13:17:14;;;;;;;;;;;6.30;99.90;;;;;;4974209;28;20438;-51
2022/12/27 13:19:45;;;;;;;;;;;6.40;99.90;;;;;;4974982;28;19926;-51
2022/12/27 13:22:29;;;;;;;;;;;6.30;99.90;;;;;;4975095;28;19929;-54
2022/12/27 13:25:19;;;;;;;;;;;6.30;99.90;;;;;;4975117;28;19929;-53
2022/12/27 13:27:47;;;;;;;;;;;6.40;99.90;;;;;;4959037;28;19975;-51
2022/12/27 13:30:13;;;;;;;;;;;6.40;99.90;;;;;;4975236;28;20044;-52
2022/12/27 13:32:50;;;;;;;;;;;6.40;99.90;;;;;;4974942;28;20029;-54
2022/12/27 13:35:19;;;;;;;;;;;6.30;99.90;;;;;;4974207;28;19922;-52
2022/12/27 13:38:06;;;;;;;;;;;6.30;99.90;;;;;;4968561;28;20349;-52
2022/12/27 13:40:40;;;;;;;;;;;6.30;99.90;;;;;;4962430;28;19933;-53
2022/12/27 13:43:38;;;;;;;;;;;6.30;99.90;;;;;;4968810;28;20395;-54
2022/12/27 13:46:24;;;;;;;;;;;6.30;99.90;;;;;;4899873;29;19923;-51
2022/12/27 13:48:52;;;;;;;;;;;6.30;99.90;;;;;;4931619;29;19926;-51
2022/12/27 13:51:34;;;;;;;;;;;6.20;99.90;;;;;;4925610;29;20017;-54
2022/12/27 13:54:18;;;;;;;;;;;6.30;99.90;;;;;;4934153;29;19926;-52
2022/12/27 13:56:52;;;;;;;;;;;6.30;99.90;;;;;;4933292;29;19929;-51
2022/12/27 13:59:36;;;;;;;;;;;6.30;99.90;;;;;;4913454;29;19926;-51
2022/12/27 14:02:26;;;;;;;;;;;6.30;99.90;;;;;;4932308;29;20393;-51
2022/12/27 14:05:00;;;;;;;;;;;6.20;99.90;;;;;;4929191;29;19922;-52
2022/12/27 14:07:28;;;;;;;;;;;6.30;99.90;;;;;;4928427;29;20006;-52
2022/12/27 14:10:02;;;;;;;;;;;6.20;99.90;;;;;;4926526;29;19946;-52
2022/12/27 14:12:46;;;;;;;;;;;6.20;99.90;;;;;;4926958;29;19919;-55
2022/12/27 14:15:15;;;;;;;;;;;6.20;99.90;;;;;;4925284;29;19922;-53
2022/12/27 14:17:55;;;;;;;;;;;6.10;99.90;;;;;;4911960;29;19969;-53
2022/12/27 14:20:29;;;;;;;;;;;6.10;99.90;;;;;;4926837;29;20009;-53
2022/12/27 14:23:14;;;;;;;;;;;6.00;99.90;;;;;;4968016;28;19929;-55
2022/12/27 14:25:58;;;;;;;;;;;6.00;99.90;;;;;;4971974;28;19953;-54
2022/12/27 14:28:29;;;;;;;;;;;6.00;99.90;;;;;;4967070;28;20027;-51
2022/12/27 14:30:55;;;;;;;;;;;5.90;99.90;;;;;;4970616;28;19980;-53
2022/12/27 14:33:39;;;;;;;;;;;5.80;99.90;;;;;;4971023;28;19965;-57
2022/12/27 14:36:23;;;;;;;;;;;5.80;99.90;;;;;;4969042;28;20300;-56
2022/12/27 14:38:48;;;;;;;;;;;5.70;99.90;;;;;;4971892;28;19936;-55
2022/12/27 14:41:23;;;;;;;;;;;5.70;99.90;;;;;;4971329;28;19922;-52
2022/12/27 14:44:09;;;;;;;;;;;5.60;99.90;;;;;;4969866;28;19981;-51
2022/12/27 14:46:46;;;;;;;;;;;5.60;99.90;;;;;;4969459;28;20377;-54
2022/12/27 14:49:15;;;;;;;;;;;5.60;99.90;;;;;;4969483;28;19930;-55
2022/12/27 14:51:56;;;;;;;;;;;5.50;99.90;;;;;;4959437;28;19928;-55
2022/12/27 14:54:33;;;;;;;;;;;5.50;99.90;;;;;;4963288;28;19922;-54
2022/12/27 14:56:59;;;;;;;;;;;5.50;99.90;;;;;;4955952;28;19942;-56
2022/12/27 14:59:31;;;;;;;;;;;5.50;99.90;;;;;;4971686;28;20009;-51
2022/12/27 15:02:05;;;;;;;;;;;5.40;99.90;;;;;;4969940;28;19944;-50
2022/12/27 15:04:31;;;;;;;;;;;5.40;99.90;;;;;;4974041;28;19929;-51
2022/12/27 15:07:08;;;;;;;;;;;5.30;99.90;;;;;;4978361;28;20280;-50
2022/12/27 15:09:37;;;;;;;;;;;5.30;99.90;;;;;;4977488;28;19922;-51
2022/12/27 15:12:03;;;;;;;;;;;;;;;;;;4977807;28;20296;-51
2022/12/27 15:14:34;;;;;;;;;;;5.20;99.90;;;;;;4974770;28;19937;-50
2022/12/27 15:17:13;;;;;;;;;;;5.20;99.90;;;;;;4977850;28;19929;-50
2022/12/27 15:19:45;;;;;;;;;;;5.20;99.90;;;;;;4974331;28;19925;-53
2022/12/27 15:22:18;;;;;;;;;;;5.20;99.90;;;;;;4979187;28;19926;-52
2022/12/27 15:24:49;;;;;;;;;;;5.20;99.90;;;;;;4980236;28;19993;-54
2022/12/27 15:27:15;;;;;;;;;;;;;;;;;;4976161;28;20008;-56
2022/12/27 15:29:46;;;;;;;;;;;5.10;99.90;;;;;;4977970;28;19965;-53
2022/12/27 15:32:29;;;;;;;;;;;5.10;99.90;;;;;;4976130;28;19926;-52
2022/12/27 15:35:18;;;;;;;;;;;5.00;99.90;;;;;;4976533;28;19936;-55
2022/12/27 15:37:46;;;;;;;;;;;5.00;99.90;;;;;;4974720;28;19922;-54
2022/12/27 15:40:18;;;;;;;;;;;5.00;99.90;;;;;;4977252;28;20016;-55
2022/12/27 15:43:06;;;;;;;;;;;5.00;99.90;;;;;;4976997;28;19936;-56
2022/12/27 15:45:51;;;;;;;;;;;4.90;99.90;;;;;;4971262;28;20009;-54
2022/12/27 15:48:23;;;;;;;;;;;4.90;99.90;;;;;;4974811;28;19922;-55
2022/12/27 15:51:07;;;;;;;;;;;4.90;99.90;;;;;;4975898;28;20011;-54
2022/12/27 15:53:39;;;;;;;;;;;4.80;99.90;;;;;;4961186;28;19930;-52
2022/12/27 15:56:11;;;;;;;;;;;4.70;99.90;;;;;;4960918;28;20320;-52
2022/12/27 15:58:37;;;;;;;;;;;4.80;99.90;;;;;;4976971;28;20041;-51
2022/12/27 16:01:15;;;;;;;;;;;4.70;99.90;;;;;;4975936;28;20024;-53
2022/12/27 16:03:49;;;;;;;;;;;4.70;99.90;;;;;;4975703;28;19951;-55
2022/12/27 16:06:33;;;;;;;;;;;4.70;99.90;;;;;;4975188;28;19922;-54
2022/12/27 16:09:20;;;;;;;;;;;4.70;99.90;;;;;;4976706;28;19922;-54
2022/12/27 16:11:56;;;;;;;;;;;4.70;99.90;;;;;;4956860;28;20377;-56
2022/12/27 16:14:27;;;;;;;;;;;4.70;99.90;;;;;;4959743;28;19969;-51
2022/12/27 16:16:56;;;;;;;;;;;4.70;99.90;;;;;;4969360;28;19930;-51
2022/12/27 16:19:36;;;;;;;;;;;4.70;99.90;;;;;;4966418;28;20348;-51
2022/12/27 16:22:01;;;;;;;;;;;4.70;99.90;;;;;;4975069;28;19922;-51
2022/12/27 16:24:28;;;;;;;;;;;4.70;99.90;;;;;;4973310;28;19968;-50